Time;durP1;ratioP1;P1;durP2;ratioP2;P2;SDS_P1;SDS_P2;PMS_P1;PMS_P2;Temp;Humidity;BMP_temperature;BMP_pressure;BME280_temperature;BME280_humidity;BME280_pressure;Samples;Min_cycle;Max_cycle;Signal;HPM_P1;HPM_P2
2022/01/12 00:00:22;;;;;;;8.40;4.90;;;14.90;91.30;;;;;;1997252;28;20173;-71
2022/01/12 00:01:21;;;;;;;9.73;5.25;;;14.80;91.40;;;;;;1997117;28;20237;-70
2022/01/12 00:02:19;;;;;;;5.40;4.40;;;14.80;91.20;;;;;;1997400;28;20629;-70
2022/01/12 00:03:18;;;;;;;8.73;5.10;;;14.80;91.20;;;;;;1996424;28;21022;-70
2022/01/12 00:04:18;;;;;;;7.57;4.45;;;14.80;91.30;;;;;;1996828;28;20664;-70
2022/01/12 00:05:17;;;;;;;7.03;4.70;;;14.80;91.30;;;;;;1996264;28;20177;-70
2022/01/12 00:06:16;;;;;;;6.78;4.55;;;14.80;91.40;;;;;;1996538;28;20165;-70
2022/01/12 00:07:14;;;;;;;6.67;4.83;;;14.80;91.30;;;;;;1997180;28;20194;-70
2022/01/12 00:08:13;;;;;;;7.53;4.30;;;14.80;91.40;;;;;;1997210;28;20178;-70
2022/01/12 00:09:11;;;;;;;5.40;4.67;;;14.80;91.40;;;;;;1997280;28;20624;-70
2022/01/12 00:10:10;;;;;;;7.60;4.60;;;14.80;91.30;;;;;;1997180;28;20169;-70
2022/01/12 00:11:09;;;;;;;8.60;5.20;;;14.80;91.30;;;;;;1997200;28;20170;-71
2022/01/12 00:12:08;;;;;;;7.90;5.30;;;14.80;91.30;;;;;;1997187;28;20181;-70
2022/01/12 00:13:06;;;;;;;7.25;4.25;;;14.80;91.40;;;;;;1996432;28;20644;-70
2022/01/12 00:14:05;;;;;;;7.90;4.00;;;14.90;91.50;;;;;;1996608;28;20192;-70
2022/01/12 00:15:04;;;;;;;4.73;3.47;;;14.80;91.40;;;;;;1997136;28;20531;-70
2022/01/12 00:16:04;;;;;;;5.63;3.90;;;14.80;91.50;;;;;;1996993;28;20173;-70
2022/01/12 00:17:02;;;;;;;7.15;4.30;;;14.80;91.60;;;;;;1997308;28;20166;-70
2022/01/12 00:18:01;;;;;;;6.43;4.57;;;14.80;91.60;;;;;;1997094;28;20667;-70
2022/01/12 00:19:00;;;;;;;6.20;4.03;;;14.90;91.60;;;;;;1997197;28;20638;-70
2022/01/12 00:19:59;;;;;;;7.78;4.80;;;14.90;91.50;;;;;;1997240;28;20236;-70
2022/01/12 00:20:57;;;;;;;5.03;3.80;;;14.80;91.30;;;;;;1996992;28;20292;-70
2022/01/12 00:21:56;;;;;;;4.40;3.80;;;14.80;91.40;;;;;;1997052;28;20184;-70
2022/01/12 00:22:55;;;;;;;6.10;4.50;;;14.90;91.50;;;;;;1997327;28;20174;-71
2022/01/12 00:23:53;;;;;;;6.33;4.20;;;14.90;91.40;;;;;;1997230;28;20249;-71
2022/01/12 00:25:11;;;;;;;7.40;4.30;;;14.90;91.40;;;;;;1997087;28;20193;-71
2022/01/12 00:26:26;;;;;;;6.50;4.40;;;14.90;91.30;;;;;;1997083;28;20153;-71
2022/01/12 00:33:52;;;;;;;5.45;3.58;;;14.80;91.30;;;;;;2004365;28;20165;-70
2022/01/12 00:34:51;;;;;;;6.03;4.65;;;14.90;91.40;;;;;;2002319;28;20157;-71
2022/01/12 00:35:57;;;;;;;6.85;4.38;;;14.90;91.40;;;;;;1997056;28;20186;-71
2022/01/12 00:36:56;;;;;;;6.88;4.43;;;14.90;91.40;;;;;;1996928;28;20198;-71
2022/01/12 00:37:54;;;;;;;6.00;3.97;;;14.90;91.30;;;;;;1997107;28;20633;-71
2022/01/12 00:38:53;;;;;;;7.30;4.60;;;14.90;91.40;;;;;;1997223;28;20173;-71
2022/01/12 00:39:58;;;;;;;9.30;4.97;;;14.90;91.30;;;;;;1997002;28;20180;-71
2022/01/12 00:40:57;;;;;;;9.63;5.20;;;14.90;91.50;;;;;;1997089;28;20637;-71
2022/01/12 00:41:55;;;;;;;6.97;4.57;;;14.90;91.30;;;;;;1997270;28;20174;-70
2022/01/12 00:42:56;;;;;;;5.43;4.30;;;14.90;91.50;;;;;;1997150;28;20416;-70
2022/01/12 00:43:59;;;;;;;7.50;4.70;;;14.90;91.50;;;;;;1996980;28;20181;-70
2022/01/12 00:45:02;;;;;;;5.65;4.00;;;14.90;91.30;;;;;;1997177;28;20159;-71
2022/01/12 00:46:01;;;;;;;6.25;4.28;;;14.90;91.30;;;;;;1997414;28;20178;-71
2022/01/12 00:47:00;;;;;;;9.33;4.70;;;14.90;91.30;;;;;;1997185;28;20553;-71
2022/01/12 00:47:59;;;;;;;5.95;4.35;;;14.90;91.50;;;;;;1997216;28;20648;-71
2022/01/12 00:48:58;;;;;;;8.47;4.43;;;14.90;91.30;;;;;;1997149;28;20173;-72
2022/01/12 00:49:57;;;;;;;7.50;4.82;;;15.00;91.40;;;;;;1997152;28;20170;-71
2022/01/12 00:50:56;;;;;;;5.73;4.47;;;14.90;91.20;;;;;;1997250;28;20269;-71
2022/01/12 00:51:55;;;;;;;6.47;4.45;;;14.90;91.30;;;;;;1996477;28;20181;-71
2022/01/12 00:52:53;;;;;;;12.07;4.57;;;14.90;91.20;;;;;;1996495;28;20181;-71
2022/01/12 00:53:56;;;;;;;6.47;3.90;;;15.00;91.20;;;;;;1997039;28;20540;-71
2022/01/12 00:54:55;;;;;;;7.65;4.15;;;14.90;91.30;;;;;;2004188;28;20260;-71
2022/01/12 00:55:53;;;;;;;5.40;3.83;;;15.00;91.30;;;;;;2004290;28;20219;-71
2022/01/12 00:56:52;;;;;;;6.87;4.53;;;15.00;91.20;;;;;;1997552;28;20193;-71
2022/01/12 00:57:51;;;;;;;6.07;3.63;;;15.00;91.50;;;;;;1996980;28;20231;-71
2022/01/12 00:58:50;;;;;;;9.75;4.25;;;15.00;91.10;;;;;;1997016;28;20185;-71
2022/01/12 00:59:49;;;;;;;6.20;4.15;;;15.00;91.20;;;;;;2004454;28;20521;-71
2022/01/12 01:00:48;;;;;;;9.40;4.73;;;15.00;91.30;;;;;;2004406;28;20288;-71
2022/01/12 01:01:47;;;;;;;6.53;4.53;;;15.00;91.20;;;;;;1997375;28;20180;-71
2022/01/12 01:02:47;;;;;;;5.88;4.07;;;15.00;91.40;;;;;;1997044;28;20269;-71
2022/01/12 01:03:51;;;;;;;8.70;4.45;;;15.00;91.30;;;;;;1996859;28;20169;-71
2022/01/12 01:04:50;;;;;;;5.03;3.60;;;15.00;91.50;;;;;;1996949;28;20181;-70
2022/01/12 01:05:48;;;;;;;10.70;4.80;;;14.90;91.30;;;;;;1997130;28;20645;-71
2022/01/12 01:06:50;;;;;;;5.10;3.87;;;15.00;91.40;;;;;;1996901;28;20197;-71
2022/01/12 01:07:49;;;;;;;8.73;4.68;;;15.00;91.50;;;;;;1996189;28;20425;-71
2022/01/12 01:08:51;;;;;;;7.07;4.40;;;15.00;91.30;;;;;;1996238;28;20240;-71
2022/01/12 01:10:01;;;;;;;6.97;4.00;;;15.00;91.30;;;;;;1996247;28;20177;-71
2022/01/12 01:11:00;;;;;;;5.47;4.20;;;15.00;91.20;;;;;;1989635;28;20159;-71
2022/01/12 01:11:58;;;;;;;8.98;4.90;;;15.00;91.30;;;;;;1996533;28;20532;-70
2022/01/12 01:12:57;;;;;;;12.33;4.30;;;15.00;91.20;;;;;;1997156;28;20189;-71
2022/01/12 01:14:03;;;;;;;5.33;4.20;;;15.00;91.20;;;;;;1996876;28;20181;-71
2022/01/12 01:15:10;;;;;;;5.65;4.00;;;15.00;91.30;;;;;;1996965;28;20158;-71
2022/01/12 01:16:20;;;;;;;7.90;4.28;;;15.00;91.30;;;;;;1997093;28;20189;-71
2022/01/12 01:25:29;;;;;;;5.47;3.67;;;15.00;91.40;;;;;;1996833;28;20158;-70
2022/01/12 01:25:29;;;;;;;5.32;4.18;;;15.00;91.30;;;;;;1996997;28;20675;-71
2022/01/12 01:25:42;;;;;;;10.18;4.57;;;14.90;91.40;;;;;;1996897;28;20162;-71
2022/01/12 01:26:41;;;;;;;6.32;4.55;;;15.00;91.50;;;;;;1996229;28;20204;-70
2022/01/12 01:27:40;;;;;;;6.13;4.40;;;15.00;91.50;;;;;;1996311;28;20198;-71
2022/01/12 01:28:38;;;;;;;6.40;4.30;;;15.00;91.50;;;;;;1996890;28;20668;-71
2022/01/12 01:29:37;;;;;;;5.67;3.70;;;15.00;91.40;;;;;;1996874;28;20178;-70
2022/01/12 01:30:38;;;;;;;8.67;3.80;;;15.00;91.30;;;;;;1996990;28;20260;-70
2022/01/12 01:31:38;;;;;;;6.20;4.15;;;15.00;91.60;;;;;;1997002;28;20285;-70
2022/01/12 01:32:38;;;;;;;6.45;4.55;;;15.00;91.40;;;;;;1996347;28;20177;-70
2022/01/12 01:33:36;;;;;;;7.00;4.85;;;15.00;91.30;;;;;;1996389;28;20205;-70
2022/01/12 01:34:42;;;;;;;5.67;3.70;;;15.00;91.30;;;;;;1997030;28;20182;-70
2022/01/12 01:35:46;;;;;;;6.00;3.97;;;15.00;91.20;;;;;;1997028;28;20162;-70
2022/01/12 01:36:53;;;;;;;6.78;5.07;;;15.10;91.40;;;;;;1996417;28;20292;-70
2022/01/12 01:37:51;;;;;;;8.18;4.82;;;15.00;91.30;;;;;;2005241;28;20177;-70
2022/01/12 01:38:50;;;;;;;9.57;4.57;;;15.10;91.30;;;;;;2002816;28;20188;-70
2022/01/12 01:39:49;;;;;;;6.70;4.57;;;15.00;91.10;;;;;;2007129;28;20218;-71
2022/01/12 01:40:47;;;;;;;6.30;3.60;;;15.00;91.20;;;;;;2007727;28;20209;-71
2022/01/12 01:41:55;;;;;;;9.70;4.70;;;15.00;91.20;;;;;;2007580;28;20412;-71
2022/01/12 01:54:13;;;;;;;9.10;4.25;;;15.00;91.30;;;;;;1998370;28;20166;-72
2022/01/12 01:55:13;;;;;;;6.07;4.22;;;15.00;91.30;;;;;;1998242;28;20307;-70
2022/01/12 01:56:13;;;;;;;8.07;4.25;;;15.00;91.30;;;;;;1998152;28;20177;-70
2022/01/12 01:57:12;;;;;;;5.80;3.65;;;15.00;91.30;;;;;;1998248;28;20189;-71
2022/01/12 01:58:11;;;;;;;7.07;4.05;;;15.00;91.30;;;;;;1998466;28;20182;-70
2022/01/12 01:59:09;;;;;;;4.53;3.77;;;15.10;91.30;;;;;;1998279;28;20174;-70
2022/01/12 02:00:11;;;;;;;5.53;4.40;;;15.10;91.30;;;;;;1998083;28;20183;-70
2022/01/12 02:01:11;;;;;;;5.00;4.20;;;15.10;91.40;;;;;;1998239;28;20600;-70
2022/01/12 02:02:09;;;;;;;5.50;3.85;;;15.00;91.30;;;;;;1998285;28;20216;-70
2022/01/12 02:03:08;;;;;;;5.20;3.70;;;15.10;91.30;;;;;;1998253;28;20224;-70
2022/01/12 02:04:06;;;;;;;5.63;3.67;;;15.00;91.20;;;;;;1998146;28;20181;-70
2022/01/12 02:05:06;;;;;;;7.00;4.37;;;15.00;91.10;;;;;;1998406;28;20166;-70
2022/01/12 02:06:07;;;;;;;5.70;3.70;;;15.00;91.30;;;;;;1997509;28;20264;-70
2022/01/12 02:07:06;;;;;;;8.75;4.72;;;15.00;91.30;;;;;;1997734;28;20615;-70
2022/01/12 02:08:05;;;;;;;6.00;3.77;;;15.10;91.30;;;;;;1998387;28;20393;-70
2022/01/12 02:09:05;;;;;;;5.00;3.47;;;15.10;91.20;;;;;;1998190;28;20205;-70
2022/01/12 02:10:04;;;;;;;4.95;4.35;;;15.00;91.20;;;;;;1998298;28;20180;-70
2022/01/12 02:11:03;;;;;;;6.97;3.95;;;15.10;91.30;;;;;;1998105;28;20222;-70
2022/01/12 02:12:02;;;;;;;6.00;4.53;;;15.10;91.20;;;;;;1997573;28;20203;-70
2022/01/12 02:13:02;;;;;;;9.63;4.90;;;15.10;91.20;;;;;;1997818;28;20574;-71
2022/01/12 02:14:00;;;;;;;10.20;4.07;;;15.10;91.20;;;;;;1997072;28;20974;-70
2022/01/12 02:15:02;;;;;;;6.43;3.60;;;15.20;91.30;;;;;;1997676;28;20199;-70
2022/01/12 02:16:01;;;;;;;7.18;4.65;;;15.00;91.20;;;;;;1997882;28;20217;-70
2022/01/12 02:17:05;;;;;;;5.77;4.10;;;15.00;91.10;;;;;;1997659;28;20201;-70
2022/01/12 02:19:49;;;;;;;5.85;3.63;;;15.00;91.10;;;;;;1989340;28;20535;-70
2022/01/12 02:36:32;;;;;;;5.63;4.22;;;15.10;91.20;;;;;;2005418;28;20201;-70
2022/01/12 02:40:10;;;;;;;8.43;4.97;;;15.10;91.50;;;;;;2001067;28;20577;-70
2022/01/12 02:41:08;;;;;;;6.60;4.55;;;15.10;91.30;;;;;;1997264;28;20190;-70
2022/01/12 02:42:07;;;;;;;7.87;4.90;;;15.10;91.30;;;;;;1997677;28;20177;-70
2022/01/12 02:43:14;;;;;;;6.27;4.33;;;15.10;91.30;;;;;;1997986;28;20196;-71
2022/01/12 02:50:55;;;;;;;6.85;5.00;;;15.00;91.20;;;;;;1981221;28;20639;-71
2022/01/12 02:53:40;;;;;;;6.78;3.70;;;15.00;91.20;;;;;;1966329;29;20185;-71
2022/01/12 02:54:39;;;;;;;7.13;3.80;;;15.00;91.20;;;;;;1996307;28;20273;-71
2022/01/12 02:55:37;;;;;;;5.90;4.30;;;15.00;91.20;;;;;;1997348;28;20708;-71
2022/01/12 02:56:36;;;;;;;6.97;4.37;;;15.10;91.30;;;;;;1997259;28;20205;-71
2022/01/12 02:57:34;;;;;;;6.33;4.00;;;15.10;91.30;;;;;;1996775;28;20194;-71
2022/01/12 02:58:35;;;;;;;6.03;4.40;;;15.00;91.20;;;;;;1997261;28;20304;-70
2022/01/12 02:59:34;;;;;;;6.55;4.35;;;15.10;91.50;;;;;;1997185;28;20182;-71
2022/01/12 03:00:54;;;;;;;7.50;4.43;;;15.10;91.30;;;;;;1997424;28;20178;-70
2022/01/12 03:03:02;;;;;;;6.85;4.20;;;15.00;91.30;;;;;;1997738;28;20241;-71
2022/01/12 03:04:05;;;;;;;6.72;4.65;;;15.00;91.30;;;;;;1997824;28;20200;-71
2022/01/12 03:06:10;;;;;;;5.47;4.07;;;14.90;91.30;;;;;;1997805;28;20166;-71
2022/01/12 03:07:16;;;;;;;9.50;5.18;;;14.90;91.30;;;;;;1997896;28;20182;-71
2022/01/12 03:08:19;;;;;;;5.78;4.15;;;14.90;91.30;;;;;;1997854;28;20219;-71
2022/01/12 03:09:18;;;;;;;5.43;3.88;;;14.90;91.20;;;;;;1997908;28;20617;-71
2022/01/12 03:10:17;;;;;;;7.20;4.57;;;14.90;91.30;;;;;;1997942;28;20489;-71
2022/01/12 03:11:18;;;;;;;7.68;4.13;;;14.90;91.30;;;;;;1997902;28;20541;-71
2022/01/12 03:12:17;;;;;;;10.82;5.40;;;14.90;91.40;;;;;;1997910;28;20178;-71
2022/01/12 03:13:16;;;;;;;9.40;4.40;;;14.80;91.50;;;;;;1997705;28;20228;-70
2022/01/12 03:14:14;;;;;;;8.00;5.00;;;14.90;91.50;;;;;;1997176;28;20261;-71
2022/01/12 03:15:13;;;;;;;7.20;4.20;;;14.90;91.50;;;;;;1997285;28;20583;-71
2022/01/12 03:16:17;;;;;;;5.70;4.00;;;14.80;91.40;;;;;;1997527;28;20181;-71
2022/01/12 03:17:15;;;;;;;6.03;4.68;;;14.90;91.50;;;;;;1997765;28;20158;-71
2022/01/12 03:18:18;;;;;;;6.10;4.40;;;14.90;91.40;;;;;;2004939;28;20177;-71
2022/01/12 03:19:16;;;;;;;6.38;4.50;;;14.90;91.50;;;;;;2004961;28;20409;-71
2022/01/12 03:20:15;;;;;;;6.57;4.57;;;14.80;91.50;;;;;;1997611;28;20664;-71
2022/01/12 03:21:15;;;;;;;7.33;4.50;;;14.90;91.40;;;;;;1997817;28;20201;-71
2022/01/12 03:22:14;;;;;;;7.72;4.13;;;14.90;91.50;;;;;;1997248;28;20178;-71
2022/01/12 03:23:16;;;;;;;6.67;3.97;;;14.90;91.40;;;;;;1997244;28;20177;-71
2022/01/12 03:24:16;;;;;;;7.03;4.70;;;14.90;91.50;;;;;;1997726;28;20224;-71
2022/01/12 03:25:16;;;;;;;9.07;4.32;;;14.90;91.50;;;;;;1997914;28;20178;-72
2022/01/12 03:26:14;;;;;;;6.13;4.00;;;14.90;91.60;;;;;;1997636;28;20170;-71
2022/01/12 03:27:14;;;;;;;4.93;3.83;;;14.90;91.50;;;;;;2005028;28;20249;-71
2022/01/12 03:28:13;;;;;;;7.03;4.90;;;14.90;91.40;;;;;;1997017;28;20173;-71
2022/01/12 03:29:12;;;;;;;6.53;4.30;;;14.90;91.40;;;;;;1989632;28;20325;-71
2022/01/12 03:30:12;;;;;;;6.60;4.80;;;14.90;91.40;;;;;;1997491;28;20223;-70
2022/01/12 03:32:17;;;;;;;6.90;4.60;;;14.90;91.40;;;;;;1997646;28;20189;-71
2022/01/12 03:33:35;;;;;;;5.28;3.63;;;14.90;91.40;;;;;;1997830;28;20158;-71
2022/01/12 03:34:36;;;;;;;10.07;4.30;;;15.00;91.50;;;;;;1997921;28;20605;-71
2022/01/12 03:35:49;;;;;;;6.10;4.47;;;14.90;91.30;;;;;;1997630;28;20310;-73
2022/01/12 03:39:12;;;;;;;6.25;4.03;;;14.90;91.50;;;;;;1997663;28;20165;-71
2022/01/12 03:40:11;;;;;;;4.65;4.15;;;14.90;91.50;;;;;;1997842;28;20174;-71
2022/01/12 03:41:11;;;;;;;8.00;5.07;;;14.90;91.50;;;;;;1997561;28;20724;-71
2022/01/12 03:42:10;;;;;;;6.28;4.70;;;14.90;91.40;;;;;;1996848;28;20189;-71
2022/01/12 03:43:08;;;;;;;9.10;5.10;;;14.90;91.40;;;;;;1996825;28;20228;-70
2022/01/12 03:44:10;;;;;;;6.90;4.20;;;15.00;91.50;;;;;;1997538;28;20177;-70
2022/01/12 03:45:09;;;;;;;6.85;4.35;;;15.00;91.70;;;;;;2004817;28;20204;-70
2022/01/12 03:46:08;;;;;;;7.83;4.40;;;15.00;91.40;;;;;;2004773;28;20170;-70
2022/01/12 03:47:06;;;;;;;5.27;4.00;;;15.00;91.50;;;;;;1997764;28;20231;-70
2022/01/12 03:48:06;;;;;;;6.30;4.47;;;15.00;91.40;;;;;;2004857;28;20300;-70
2022/01/12 03:49:04;;;;;;;8.27;4.93;;;15.00;91.50;;;;;;2004828;28;20633;-70
2022/01/12 03:50:04;;;;;;;6.40;4.40;;;15.00;91.50;;;;;;1997857;28;20181;-71
2022/01/12 03:51:03;;;;;;;6.63;4.53;;;15.00;91.40;;;;;;1997466;28;20182;-71
2022/01/12 03:52:04;;;;;;;9.00;4.57;;;15.00;91.40;;;;;;1997583;28;20629;-71
2022/01/12 03:53:02;;;;;;;7.53;4.50;;;15.00;91.50;;;;;;1997483;28;20174;-70
2022/01/12 03:54:02;;;;;;;5.50;3.90;;;15.00;91.40;;;;;;2004889;28;20181;-70
2022/01/12 03:55:00;;;;;;;6.35;3.60;;;15.00;91.50;;;;;;2004488;28;20232;-70
2022/01/12 03:55:58;;;;;;;8.77;4.67;;;15.00;91.50;;;;;;1997275;28;20178;-71
2022/01/12 03:56:59;;;;;;;8.17;4.53;;;15.00;91.40;;;;;;1997423;28;20205;-70
2022/01/12 03:57:57;;;;;;;6.93;4.22;;;15.00;91.50;;;;;;1997452;28;20181;-71
2022/01/12 03:58:56;;;;;;;7.70;4.70;;;15.00;91.40;;;;;;1997287;28;20701;-70
2022/01/12 03:59:54;;;;;;;4.50;4.00;;;15.00;91.30;;;;;;1997555;28;20178;-70
2022/01/12 04:00:53;;;;;;;6.20;4.47;;;15.00;91.30;;;;;;1997327;28;20186;-70
2022/01/12 04:01:51;;;;;;;9.00;5.67;;;15.00;91.40;;;;;;1997354;28;20173;-71
2022/01/12 04:02:50;;;;;;;5.83;3.53;;;15.00;91.40;;;;;;1997301;28;20208;-71
2022/01/12 04:03:59;;;;;;;5.77;3.80;;;15.00;91.40;;;;;;1997341;28;20651;-71
2022/01/12 04:08:18;;;;;;;6.35;4.45;;;14.90;91.40;;;;;;2004717;28;20520;-71
2022/01/12 04:08:56;;;;;;;8.82;4.68;;;14.90;91.50;;;;;;2004695;28;20197;-71
2022/01/12 04:09:54;;;;;;;10.20;4.37;;;14.90;91.50;;;;;;2003112;28;20169;-71
2022/01/12 04:11:00;;;;;;;5.07;3.60;;;14.90;91.50;;;;;;1997271;28;20213;-71
2022/01/12 04:11:59;;;;;;;5.88;3.88;;;14.90;91.50;;;;;;1997475;28;20154;-71
2022/01/12 04:12:57;;;;;;;5.63;3.70;;;15.00;91.50;;;;;;1997500;28;20184;-70
2022/01/12 04:13:56;;;;;;;5.10;4.10;;;14.90;91.50;;;;;;2004667;28;20228;-71
2022/01/12 04:14:54;;;;;;;4.97;3.47;;;14.90;91.50;;;;;;2004608;28;20174;-70
2022/01/12 04:16:00;;;;;;;7.47;4.53;;;14.90;91.40;;;;;;1997798;28;20237;-71
2022/01/12 04:16:59;;;;;;;6.07;4.05;;;15.00;91.50;;;;;;1997057;28;20201;-71
2022/01/12 04:17:57;;;;;;;6.60;3.87;;;15.00;91.40;;;;;;2004756;28;20196;-71
2022/01/12 04:18:56;;;;;;;5.27;4.00;;;14.90;91.50;;;;;;2004575;28;20185;-70
2022/01/12 04:19:54;;;;;;;5.53;3.87;;;14.90;91.50;;;;;;1997142;28;20182;-70
2022/01/12 04:20:57;;;;;;;7.10;4.40;;;15.00;91.60;;;;;;1996663;28;20383;-70
2022/01/12 04:22:05;;;;;;;6.25;4.53;;;15.00;91.60;;;;;;1997205;28;20166;-70
2022/01/12 04:23:19;;;;;;;4.70;4.00;;;15.00;91.60;;;;;;1997371;28;20514;-71
2022/01/12 04:24:18;;;;;;;5.72;4.15;;;15.00;91.50;;;;;;1997310;28;20165;-70
2022/01/12 04:25:17;;;;;;;6.87;4.27;;;15.00;91.60;;;;;;1997244;28;20182;-70
2022/01/12 04:26:16;;;;;;;6.30;4.10;;;15.00;91.60;;;;;;1997255;28;20191;-71
2022/01/12 04:27:15;;;;;;;11.40;4.60;;;15.00;91.80;;;;;;1997268;28;20220;-71
2022/01/12 04:28:15;;;;;;;8.63;4.77;;;15.00;91.70;;;;;;1997256;28;20621;-71
2022/01/12 04:29:13;;;;;;;7.32;4.00;;;15.00;92.10;;;;;;1997004;28;20173;-71
2022/01/12 04:30:12;;;;;;;7.50;4.70;;;15.10;92.30;;;;;;1997356;28;20180;-71
2022/01/12 04:31:12;;;;;;;7.67;4.50;;;15.00;92.20;;;;;;1997275;28;20464;-71
2022/01/12 04:32:10;;;;;;;7.60;4.80;;;15.00;91.70;;;;;;1997358;28;20237;-71
2022/01/12 04:33:10;;;;;;;7.30;4.60;;;15.00;92.40;;;;;;1997547;28;20182;-71
2022/01/12 04:34:09;;;;;;;8.63;4.47;;;15.00;91.70;;;;;;1997552;28;20173;-71
2022/01/12 04:35:10;;;;;;;6.00;4.60;;;15.00;92.50;;;;;;1997492;28;20181;-71
2022/01/12 04:36:09;;;;;;;6.38;4.50;;;15.00;91.60;;;;;;2005935;28;20177;-71
2022/01/12 04:37:09;;;;;;;8.30;3.88;;;15.00;91.80;;;;;;2006429;28;20182;-71
2022/01/12 04:38:09;;;;;;;7.00;4.35;;;15.00;92.90;;;;;;2005979;28;20217;-71
2022/01/12 04:39:08;;;;;;;5.93;4.30;;;15.00;91.70;;;;;;2005749;28;20193;-72
2022/01/12 04:40:07;;;;;;;6.63;4.30;;;15.00;91.70;;;;;;1997225;28;20177;-70
2022/01/12 04:41:08;;;;;;;6.45;3.88;;;15.00;92.80;;;;;;1997112;28;20316;-70
2022/01/12 04:42:07;;;;;;;7.68;4.20;;;15.00;91.70;;;;;;1997341;28;20178;-70
2022/01/12 04:43:07;;;;;;;4.40;3.50;;;15.00;92.40;;;;;;1997168;28;20213;-70
2022/01/12 04:44:08;;;;;;;6.47;4.10;;;15.00;91.50;;;;;;1997067;28;20629;-70
2022/01/12 04:45:33;;;;;;;6.32;4.30;;;15.00;92.30;;;;;;1997166;28;20195;-70
2022/01/12 04:46:48;;;;;;;6.03;4.10;;;15.00;91.70;;;;;;1997125;28;20196;-71
2022/01/12 04:48:53;;;;;;;7.17;4.80;;;14.90;93.20;;;;;;1997230;28;20174;-70
2022/01/12 04:49:52;;;;;;;6.88;4.60;;;15.00;91.80;;;;;;1997194;28;20174;-70
2022/01/12 04:50:52;;;;;;;5.60;4.00;;;15.00;92.90;;;;;;1996994;28;20240;-70
2022/01/12 04:51:51;;;;;;;5.00;3.92;;;15.00;95.10;;;;;;1997192;28;20178;-70
2022/01/12 04:52:50;;;;;;;7.17;4.30;;;15.00;94.60;;;;;;1997069;28;20626;-70
2022/01/12 04:53:50;;;;;;;7.85;4.18;;;15.00;94.70;;;;;;1996518;28;20174;-70
2022/01/12 04:54:48;;;;;;;7.32;3.92;;;15.00;94.30;;;;;;1996406;28;20221;-70
2022/01/12 04:55:48;;;;;;;5.90;3.90;;;15.00;94.20;;;;;;1997206;28;20211;-70
2022/01/12 04:56:48;;;;;;;5.47;4.13;;;15.00;94.40;;;;;;1997068;28;20516;-70
2022/01/12 04:57:47;;;;;;;6.07;4.50;;;;;;;;;;1997092;28;20174;-70
2022/01/12 04:58:46;;;;;;;5.03;4.00;;;;;;;;;;1997016;28;20189;-70
2022/01/12 05:00:03;;;;;;;5.70;3.83;;;15.50;96.60;;;;;;1996396;28;20504;-70
2022/01/12 05:01:21;;;;;;;6.88;4.43;;;15.00;93.70;;;;;;1996288;28;20456;-70
2022/01/12 05:06:41;;;;;;;6.93;4.10;;;15.00;93.50;;;;;;1996868;28;20158;-70
2022/01/12 05:07:59;;;;;;;5.35;4.13;;;15.00;93.40;;;;;;1997175;28;20234;-71
2022/01/12 05:09:11;;;;;;;8.20;3.80;;;15.00;93.30;;;;;;1996312;28;20663;-71
2022/01/12 05:12:52;;;;;;;8.02;4.20;;;15.10;93.60;;;;;;1996892;28;20162;-71
2022/01/12 05:13:52;;;;;;;5.65;3.83;;;15.10;93.40;;;;;;1996610;28;20209;-71
2022/01/12 05:15:04;;;;;;;5.68;3.95;;;15.10;93.50;;;;;;1996813;28;20477;-71
2022/01/12 05:16:04;;;;;;;4.55;3.17;;;15.10;93.30;;;;;;1997028;28;20498;-71
2022/01/12 05:17:02;;;;;;;5.55;4.00;;;15.10;93.50;;;;;;1996313;28;20178;-71
2022/01/12 05:18:01;;;;;;;6.33;4.20;;;15.20;93.50;;;;;;1996347;28;20256;-71
2022/01/12 05:19:00;;;;;;;9.30;3.90;;;15.10;93.50;;;;;;1996901;28;20348;-71
2022/01/12 05:19:59;;;;;;;8.68;3.85;;;15.10;93.50;;;;;;1997050;28;20481;-70
2022/01/12 05:20:58;;;;;;;6.40;4.10;;;15.10;93.40;;;;;;1997149;28;20296;-71
2022/01/12 05:21:58;;;;;;;47.50;4.30;;;15.10;93.40;;;;;;1997018;28;20637;-72
2022/01/12 05:22:56;;;;;;;5.20;3.40;;;15.30;93.30;;;;;;1997023;28;20264;-72
2022/01/12 05:23:55;;;;;;;5.33;3.33;;;15.30;93.30;;;;;;1997275;28;20182;-72
2022/01/12 05:24:53;;;;;;;11.97;3.20;;;15.30;93.40;;;;;;1996939;28;20165;-71
2022/01/12 05:25:53;;;;;;;6.00;3.10;;;15.20;93.10;;;;;;1997003;28;20231;-71
2022/01/12 05:26:52;;;;;;;5.35;3.58;;;15.20;93.50;;;;;;1996886;28;20563;-71
2022/01/12 05:27:50;;;;;;;9.00;3.70;;;15.20;93.10;;;;;;1996836;28;20272;-71
2022/01/12 05:28:49;;;;;;;6.23;4.10;;;15.20;93.10;;;;;;1996153;28;20185;-72
2022/01/12 05:29:47;;;;;;;5.43;3.17;;;15.20;93.10;;;;;;1996348;28;20198;-71
2022/01/12 05:30:47;;;;;;;5.17;3.63;;;15.20;93.00;;;;;;1996973;28;20245;-71
2022/01/12 05:31:48;;;;;;;7.65;4.63;;;15.20;93.10;;;;;;1996893;28;20661;-71
2022/01/12 05:32:48;;;;;;;11.18;3.70;;;15.30;92.80;;;;;;1996142;28;20173;-71
2022/01/12 05:33:48;;;;;;;5.97;3.92;;;15.20;93.00;;;;;;1996390;28;20166;-71
2022/01/12 05:34:47;;;;;;;8.10;4.03;;;15.20;92.80;;;;;;1996702;28;20177;-71
2022/01/12 05:35:46;;;;;;;8.97;4.80;;;15.20;93.10;;;;;;1996785;28;20173;-71
2022/01/12 05:36:44;;;;;;;11.43;4.77;;;15.20;93.10;;;;;;1996632;28;20437;-71
2022/01/12 05:37:44;;;;;;;8.97;4.90;;;15.20;93.10;;;;;;1996934;28;20162;-71
2022/01/12 05:38:43;;;;;;;7.40;4.93;;;15.10;93.00;;;;;;1996119;28;20162;-71
2022/01/12 05:39:42;;;;;;;11.40;5.10;;;15.10;92.90;;;;;;1996150;28;20198;-71
2022/01/12 05:40:44;;;;;;;12.13;5.23;;;15.10;92.90;;;;;;1996745;28;20455;-71
2022/01/12 05:41:43;;;;;;;10.15;5.43;;;15.10;93.00;;;;;;1996710;28;20166;-75
2022/01/12 05:42:43;;;;;;;8.73;4.70;;;15.10;92.60;;;;;;1996725;28;20216;-71
2022/01/12 05:43:45;;;;;;;8.98;4.93;;;15.10;92.60;;;;;;1996177;28;20170;-72
2022/01/12 05:44:43;;;;;;;18.10;7.15;;;15.10;92.60;;;;;;1996111;28;20203;-72
2022/01/12 05:45:44;;;;;;;19.77;5.00;;;15.10;92.60;;;;;;1996977;28;20357;-71
2022/01/12 05:46:44;;;;;;;15.85;7.18;;;15.10;92.80;;;;;;1996700;28;20204;-71
2022/01/12 05:50:00;;;;;;;20.92;7.35;;;15.10;93.00;;;;;;1996958;28;20162;-71
2022/01/12 05:51:00;;;;;;;19.83;7.13;;;15.00;92.90;;;;;;1997135;28;20197;-69
2022/01/12 05:51:58;;;;;;;17.58;6.95;;;15.00;93.10;;;;;;1997258;28;20186;-70
2022/01/12 05:52:57;;;;;;;19.50;8.20;;;15.00;92.90;;;;;;1996907;28;20547;-70
2022/01/12 05:53:56;;;;;;;25.57;9.00;;;14.90;92.70;;;;;;2004229;28;20181;-71
2022/01/12 05:54:54;;;;;;;17.77;8.17;;;14.90;92.80;;;;;;2003947;28;20220;-70
2022/01/12 05:55:53;;;;;;;16.77;8.20;;;14.90;92.50;;;;;;1997383;28;20428;-71
2022/01/12 05:56:52;;;;;;;19.93;8.77;;;14.90;92.40;;;;;;1997039;28;20198;-70
2022/01/12 05:57:50;;;;;;;15.80;6.40;;;14.90;92.50;;;;;;1996308;28;20180;-70
2022/01/12 05:58:50;;;;;;;22.10;7.27;;;14.90;92.50;;;;;;1996496;28;20539;-71
2022/01/12 05:59:50;;;;;;;15.20;7.03;;;14.90;92.40;;;;;;1997084;28;20177;-73
2022/01/12 06:00:48;;;;;;;24.55;7.13;;;15.00;92.50;;;;;;2004139;28;20610;-70
2022/01/12 06:01:47;;;;;;;16.73;7.20;;;14.90;92.30;;;;;;2004116;28;20177;-70
2022/01/12 06:02:45;;;;;;;11.50;6.60;;;14.90;92.30;;;;;;1997165;28;20178;-70
2022/01/12 06:03:44;;;;;;;14.67;6.20;;;14.90;92.40;;;;;;1996934;28;20202;-70
2022/01/12 06:04:43;;;;;;;18.75;6.50;;;15.00;92.40;;;;;;1997200;28;20174;-71
2022/01/12 06:05:42;;;;;;;15.25;6.68;;;15.00;92.30;;;;;;1996939;28;20266;-70
2022/01/12 06:06:42;;;;;;;15.03;6.33;;;15.00;92.40;;;;;;1997037;28;20186;-71
2022/01/12 06:07:41;;;;;;;14.18;6.72;;;15.00;92.70;;;;;;1996670;28;20180;-70
2022/01/12 06:08:40;;;;;;;17.58;6.55;;;14.90;92.60;;;;;;1996023;28;20191;-70
2022/01/12 06:09:38;;;;;;;13.87;6.43;;;14.90;92.30;;;;;;1996987;28;20212;-71
2022/01/12 06:10:40;;;;;;;10.60;5.00;;;15.00;92.20;;;;;;1999021;28;20192;-70
2022/01/12 06:11:41;;;;;;;13.05;6.05;;;15.00;92.30;;;;;;2000337;28;20182;-70
2022/01/12 06:12:53;;;;;;;13.27;5.57;;;14.90;92.70;;;;;;2006155;28;20181;-71
2022/01/12 06:13:54;;;;;;;9.52;5.50;;;14.90;92.30;;;;;;2002996;28;20606;-71
2022/01/12 06:14:54;;;;;;;14.80;6.38;;;14.90;92.20;;;;;;1995865;28;20734;-70
2022/01/12 06:15:54;;;;;;;11.05;5.03;;;14.90;92.10;;;;;;1988609;28;20183;-70
2022/01/12 06:16:59;;;;;;;10.20;5.60;;;15.00;92.10;;;;;;1997705;28;20712;-72
2022/01/12 06:18:00;;;;;;;14.32;5.18;;;15.00;92.70;;;;;;1997409;28;20561;-71
2022/01/12 06:19:03;;;;;;;19.38;5.80;;;14.90;92.10;;;;;;1997395;28;20174;-70
2022/01/12 06:20:07;;;;;;;10.48;5.63;;;14.90;92.30;;;;;;1997630;28;20225;-71
2022/01/12 06:21:07;;;;;;;9.13;4.80;;;14.90;92.50;;;;;;1996438;28;20213;-72
2022/01/12 06:22:06;;;;;;;11.88;5.47;;;14.90;92.00;;;;;;1997171;28;20217;-71
2022/01/12 06:23:06;;;;;;;10.03;5.57;;;14.80;92.00;;;;;;1997655;28;20170;-72
2022/01/12 06:24:25;;;;;;;6.88;4.72;;;14.90;92.60;;;;;;2001366;28;20181;-73
2022/01/12 06:25:24;;;;;;;10.75;6.00;;;14.90;92.40;;;;;;2000204;28;20518;-72
2022/01/12 06:26:26;;;;;;;13.47;5.87;;;14.90;92.60;;;;;;1998516;28;20193;-71